createdAt,value
2023-02-12T00:00:56.709Z,102812.00
2023-02-12T00:03:23.497Z,102820.41
2023-02-12T00:05:50.578Z,102821.41
2023-02-12T00:08:17.300Z,102824.81
2023-02-12T00:10:44.121Z,102820.28
2023-02-12T00:13:10.933Z,102820.66
2023-02-12T00:15:37.730Z,102823.72
2023-02-12T00:18:04.615Z,102822.13
2023-02-12T00:20:31.377Z,102833.66
2023-02-12T00:22:58.146Z,102835.44
2023-02-12T00:25:24.869Z,102838.22
2023-02-12T00:27:51.685Z,102846.88
2023-02-12T00:30:18.465Z,102835.69
2023-02-12T00:32:45.188Z,102843.53
2023-02-12T00:35:11.943Z,102843.91
2023-02-12T00:37:38.690Z,102829.84
2023-02-12T00:40:05.433Z,102833.81
2023-02-12T00:42:32.183Z,102837.94
2023-02-12T00:44:58.918Z,102834.84
2023-02-12T00:47:25.654Z,102838.63
2023-02-12T00:49:52.529Z,102852.00
2023-02-12T00:52:19.315Z,102846.00
2023-02-12T00:54:46.043Z,102848.16
2023-02-12T00:57:12.785Z,102850.56
2023-02-12T00:59:40.118Z,102853.31
2023-02-12T01:02:06.879Z,102853.97
2023-02-12T01:04:33.664Z,102852.56
2023-02-12T01:07:00.404Z,102853.53
2023-02-12T01:09:27.168Z,102846.94
2023-02-12T01:11:54.000Z,102844.06
2023-02-12T01:14:20.747Z,102852.91
2023-02-12T01:16:47.507Z,102842.63
2023-02-12T01:19:14.253Z,102848.63
2023-02-12T01:21:41.003Z,102848.56
2023-02-12T01:24:07.744Z,102849.28
2023-02-12T01:26:34.531Z,102842.94
2023-02-12T01:29:01.418Z,102842.06
2023-02-12T01:31:28.776Z,102837.25
2023-02-12T01:33:55.778Z,102846.16
2023-02-12T01:36:22.524Z,102845.47
2023-02-12T01:38:49.266Z,102848.34
2023-02-12T01:41:16.054Z,102849.03
2023-02-12T01:43:42.831Z,102847.28
2023-02-12T01:46:09.633Z,102844.66
2023-02-12T01:48:36.430Z,102843.66
2023-02-12T01:51:03.718Z,102845.13
2023-02-12T01:53:30.537Z,102848.25
2023-02-12T01:55:57.611Z,102839.44
2023-02-12T01:58:24.861Z,102841.06
2023-02-12T02:00:51.594Z,102846.72
2023-02-12T02:03:18.425Z,102843.31
2023-02-12T02:05:45.216Z,102841.53
2023-02-12T02:08:11.962Z,102844.50
2023-02-12T02:10:38.703Z,102835.38
2023-02-12T02:13:23.932Z,102844.31
2023-02-12T02:15:50.717Z,102852.69
2023-02-12T02:18:17.711Z,102843.72
2023-02-12T02:20:44.448Z,102843.72
2023-02-12T02:23:11.201Z,102851.13
2023-02-12T02:25:37.927Z,102843.34
2023-02-12T02:28:04.691Z,102839.16
2023-02-12T02:30:31.551Z,102845.19
2023-02-12T02:32:58.346Z,102842.59
2023-02-12T02:35:25.064Z,102842.06
2023-02-12T02:37:51.811Z,102843.84
2023-02-12T02:40:18.714Z,102845.38
2023-02-12T02:42:45.537Z,102855.44
2023-02-12T02:45:12.454Z,102852.13
2023-02-12T02:47:39.197Z,102853.03
2023-02-12T02:50:05.993Z,102850.31
2023-02-12T02:52:32.783Z,102846.03
2023-02-12T02:54:59.551Z,102850.00
2023-02-12T02:57:26.305Z,102850.31
2023-02-12T02:59:53.064Z,102858.34
2023-02-12T03:02:19.788Z,102864.38
2023-02-12T03:04:46.520Z,102867.06
2023-02-12T03:07:13.270Z,102873.78
2023-02-12T03:09:40.011Z,102879.78
2023-02-12T03:12:06.748Z,102881.31
2023-02-12T03:14:33.489Z,102876.69
2023-02-12T03:17:00.225Z,102876.59
2023-02-12T03:19:26.967Z,102883.91
2023-02-12T03:21:53.743Z,102886.19
2023-02-12T03:24:20.476Z,102883.84
2023-02-12T03:26:47.314Z,102885.38
2023-02-12T03:29:14.072Z,102882.16
2023-02-12T03:31:40.872Z,102883.94
2023-02-12T03:34:07.710Z,102889.00
2023-02-12T03:36:34.517Z,102888.13
2023-02-12T03:39:05.360Z,102889.50
2023-02-12T03:41:32.125Z,102889.50
2023-02-12T03:43:59.111Z,102887.25
2023-02-12T03:46:25.878Z,102890.81
2023-02-12T03:48:52.635Z,102890.16
2023-02-12T03:51:19.421Z,102893.91
2023-02-12T03:53:47.082Z,102898.03
2023-02-12T03:56:13.861Z,102911.41
2023-02-12T03:58:40.624Z,102904.31
2023-02-12T04:01:07.486Z,102906.03
2023-02-12T04:03:34.343Z,102904.84
2023-02-12T04:06:01.142Z,102905.19
2023-02-12T04:08:27.903Z,102912.69
2023-02-12T04:10:54.651Z,102907.38
2023-02-12T04:13:21.447Z,102917.44
2023-02-12T04:15:48.191Z,102922.88
2023-02-12T04:18:15.240Z,102919.84
2023-02-12T04:20:42.446Z,102916.13
2023-02-12T04:23:09.166Z,102922.31
2023-02-12T04:25:35.914Z,102921.09
2023-02-12T04:28:02.729Z,102931.09
2023-02-12T04:30:29.603Z,102933.66
2023-02-12T04:32:56.444Z,102931.06
2023-02-12T04:35:23.181Z,102931.41
2023-02-12T04:37:49.923Z,102933.28
2023-02-12T04:40:16.675Z,102933.44
2023-02-12T04:42:43.558Z,102933.06
2023-02-12T04:45:10.303Z,102928.94
2023-02-12T04:47:37.049Z,102932.28
2023-02-12T04:50:03.799Z,102933.97
2023-02-12T04:52:30.528Z,102931.44
2023-02-12T04:54:57.254Z,102933.88
2023-02-12T04:57:24.060Z,102942.06
2023-02-12T04:59:50.786Z,102944.84
2023-02-12T05:02:17.592Z,102936.50
2023-02-12T05:04:44.396Z,102942.41
2023-02-12T05:07:11.184Z,102947.25
2023-02-12T05:09:37.910Z,102945.16
2023-02-12T05:12:04.657Z,102956.19
2023-02-12T05:14:31.467Z,102951.84
2023-02-12T05:16:58.196Z,102947.75
2023-02-12T05:19:24.951Z,102951.16
2023-02-12T05:21:51.707Z,102952.72
2023-02-12T05:24:18.441Z,102953.25
2023-02-12T05:26:45.209Z,102950.09
2023-02-12T05:29:11.943Z,102946.13
2023-02-12T05:31:38.771Z,102947.00
2023-02-12T05:34:05.573Z,102955.97
2023-02-12T05:36:32.314Z,102947.84
2023-02-12T05:39:00.057Z,102944.47
2023-02-12T05:41:26.861Z,102952.09
2023-02-12T05:43:53.590Z,102960.91
2023-02-12T05:46:22.025Z,102960.19
2023-02-12T05:48:48.866Z,102960.13
2023-02-12T05:51:15.670Z,102966.50
2023-02-12T05:53:42.421Z,102961.66
2023-02-12T05:56:09.184Z,102970.59
2023-02-12T05:58:35.948Z,102970.25
2023-02-12T06:01:02.677Z,102968.53
2023-02-12T06:03:29.440Z,102974.38
2023-02-12T06:05:56.543Z,102974.41
2023-02-12T06:08:23.482Z,102974.91
2023-02-12T06:10:50.237Z,102979.19
2023-02-12T06:13:17.019Z,102977.66
2023-02-12T06:15:43.813Z,102981.56
2023-02-12T06:18:10.578Z,102978.69
2023-02-12T06:20:37.299Z,102985.41
2023-02-12T06:23:04.023Z,102984.19
2023-02-12T06:25:30.814Z,103004.13
2023-02-12T06:27:57.596Z,102994.91
2023-02-12T06:30:24.366Z,102999.78
2023-02-12T06:32:51.119Z,102997.56
2023-02-12T06:35:17.862Z,102990.56
2023-02-12T06:37:44.594Z,103000.19
2023-02-12T06:40:11.345Z,103007.41
2023-02-12T06:42:38.089Z,103006.72
2023-02-12T06:45:04.839Z,103006.34
2023-02-12T06:47:31.588Z,103011.19
2023-02-12T06:49:58.356Z,103017.72
2023-02-12T06:52:25.092Z,103019.13
2023-02-12T06:54:51.840Z,103027.00
2023-02-12T06:57:18.591Z,103027.00
2023-02-12T06:59:45.359Z,103021.94
2023-02-12T07:02:12.130Z,103016.34
2023-02-12T07:04:38.941Z,103024.22
2023-02-12T07:07:05.696Z,103034.81
2023-02-12T07:09:32.451Z,103034.38
2023-02-12T07:11:59.188Z,103032.94
2023-02-12T07:14:28.190Z,103038.94
2023-02-12T07:16:57.176Z,103036.53
2023-02-12T07:19:24.189Z,103036.06
2023-02-12T07:21:51.047Z,103043.84
2023-02-12T07:24:20.982Z,103040.41
2023-02-12T07:26:47.796Z,103043.16
2023-02-12T07:29:14.560Z,103042.13
2023-02-12T07:31:41.369Z,103048.66
2023-02-12T07:34:08.168Z,103051.81
2023-02-12T07:36:34.940Z,103054.56
2023-02-12T07:39:01.765Z,103056.44
2023-02-12T07:41:28.607Z,103055.41
2023-02-12T07:43:55.355Z,103049.03
2023-02-12T07:46:22.222Z,103052.16
2023-02-12T07:48:48.996Z,103065.88
2023-02-12T07:51:15.737Z,103062.13
2023-02-12T07:53:42.520Z,103068.88
2023-02-12T07:56:09.302Z,103068.16
2023-02-12T07:58:36.100Z,103069.44
2023-02-12T08:01:02.900Z,103076.44
2023-02-12T08:03:29.657Z,103072.69
2023-02-12T08:05:56.700Z,103085.56
2023-02-12T08:08:23.943Z,103084.25
2023-02-12T08:10:50.708Z,103084.25
2023-02-12T08:13:17.463Z,103075.13
2023-02-12T08:15:44.225Z,103076.56
2023-02-12T08:18:10.982Z,103078.28
2023-02-12T08:20:37.709Z,103083.47
2023-02-12T08:23:04.487Z,103085.16
2023-02-12T08:25:31.230Z,103092.00
2023-02-12T08:27:58.010Z,103095.25
2023-02-12T08:30:24.894Z,103089.91
2023-02-12T08:32:51.622Z,103101.03
2023-02-12T08:35:18.354Z,103105.69
2023-02-12T08:37:45.116Z,103110.88
2023-02-12T08:40:13.728Z,103113.78
2023-02-12T08:42:40.462Z,103122.31
2023-02-12T08:45:07.267Z,103118.06
2023-02-12T08:47:34.003Z,103115.19
2023-02-12T08:50:00.739Z,103109.72
2023-02-12T08:52:27.496Z,103121.53
2023-02-12T08:54:54.275Z,103125.19
2023-02-12T08:57:21.010Z,103124.72
2023-02-12T08:59:47.761Z,103120.44
2023-02-12T09:02:14.495Z,103127.16
2023-02-12T09:04:41.289Z,103135.06
2023-02-12T09:07:10.743Z,103129.56
2023-02-12T09:09:37.741Z,103132.81
2023-02-12T09:12:04.467Z,103131.13
2023-02-12T09:14:31.397Z,103133.22
2023-02-12T09:16:58.237Z,103130.91
2023-02-12T09:19:25.040Z,103125.22
2023-02-12T09:21:55.166Z,103138.75
2023-02-12T09:24:22.686Z,103133.53
2023-02-12T09:26:49.425Z,103141.16
2023-02-12T09:29:16.218Z,103145.69
2023-02-12T09:31:43.162Z,103149.53
2023-02-12T09:34:10.155Z,103157.97
2023-02-12T09:36:36.950Z,103164.56
2023-02-12T09:39:05.397Z,103168.50
2023-02-12T09:41:32.179Z,103157.38
2023-02-12T09:43:58.917Z,103164.94
2023-02-12T09:46:25.690Z,103161.53
2023-02-12T09:48:52.443Z,103158.09
2023-02-12T09:51:19.331Z,103162.91
2023-02-12T09:53:46.161Z,103164.69
2023-02-12T09:56:12.913Z,103171.31
2023-02-12T09:58:39.691Z,103164.78
2023-02-12T10:01:06.487Z,103162.88
2023-02-12T10:03:33.250Z,103165.09
2023-02-12T10:06:00.002Z,103167.94
2023-02-12T10:08:26.784Z,103171.97
2023-02-12T10:10:53.578Z,103169.22
2023-02-12T10:13:20.323Z,103172.03
2023-02-12T10:15:47.128Z,103179.59
2023-02-12T10:18:13.953Z,103182.75
2023-02-12T10:20:41.664Z,103187.59
2023-02-12T10:23:08.622Z,103183.16
2023-02-12T10:25:35.342Z,103182.56
2023-02-12T10:28:02.177Z,103173.59
2023-02-12T10:30:28.953Z,103178.94
2023-02-12T10:32:55.712Z,103173.41
2023-02-12T10:35:22.497Z,103178.75
2023-02-12T10:37:49.346Z,103174.81
2023-02-12T10:40:16.075Z,103173.78
2023-02-12T10:42:42.867Z,103169.75
2023-02-12T10:45:10.395Z,103172.81
2023-02-12T10:47:37.194Z,103168.31
2023-02-12T10:50:03.954Z,103171.81
2023-02-12T10:52:30.756Z,103173.44
2023-02-12T10:54:57.566Z,103172.66
2023-02-12T10:57:24.361Z,103168.94
2023-02-12T10:59:51.156Z,103171.75
2023-02-12T11:02:17.902Z,103163.00
2023-02-12T11:04:44.684Z,103167.66
2023-02-12T11:07:11.423Z,103164.94
2023-02-12T11:09:45.134Z,103163.25
2023-02-12T11:12:12.094Z,103155.34
2023-02-12T11:14:38.815Z,103157.59
2023-02-12T11:17:05.575Z,103158.97
2023-02-12T11:19:32.355Z,103146.34
2023-02-12T11:21:59.191Z,103149.28
2023-02-12T11:24:25.947Z,103146.31
2023-02-12T11:26:52.705Z,103147.94
2023-02-12T11:29:19.457Z,103148.41
2023-02-12T11:31:46.322Z,103147.97
2023-02-12T11:34:13.180Z,103137.97
2023-02-12T11:36:39.990Z,103135.91
2023-02-12T11:39:07.751Z,103143.69
2023-02-12T11:41:35.942Z,103127.38
2023-02-12T11:44:02.678Z,103119.84
2023-02-12T11:46:29.624Z,103128.47
2023-02-12T11:48:56.520Z,103125.53
2023-02-12T11:51:23.248Z,103131.63
2023-02-12T11:53:50.042Z,103121.47
2023-02-12T11:56:16.872Z,103129.72
2023-02-12T11:58:44.774Z,103119.56
2023-02-12T12:01:11.577Z,103125.16
2023-02-12T12:03:38.377Z,103118.53
2023-02-12T12:06:05.509Z,103120.69
2023-02-12T12:08:32.266Z,103118.31
2023-02-12T12:10:59.028Z,103123.91
2023-02-12T12:13:26.127Z,103127.13
2023-02-12T12:16:11.849Z,103126.09
2023-02-12T12:18:57.285Z,103125.63
2023-02-12T12:21:24.192Z,103125.31
2023-02-12T12:23:51.009Z,103129.50
2023-02-12T12:26:17.871Z,103126.41
2023-02-12T12:28:44.642Z,103117.28
2023-02-12T12:31:11.456Z,103121.91
2023-02-12T12:33:38.601Z,103119.72
2023-02-12T12:36:05.385Z,103114.75
2023-02-12T12:38:32.161Z,103114.06
2023-02-12T12:40:58.911Z,103117.25
2023-02-12T12:43:25.718Z,103115.03
2023-02-12T12:45:52.552Z,103110.34
2023-02-12T12:48:19.396Z,103101.72
2023-02-12T12:50:46.188Z,103104.44
2023-02-12T12:53:12.949Z,103110.28
2023-02-12T12:55:39.683Z,103096.00
2023-02-12T12:58:06.812Z,103105.66
2023-02-12T13:00:33.575Z,103102.94
2023-02-12T13:03:00.359Z,103098.03
2023-02-12T13:05:27.098Z,103104.41
2023-02-12T13:07:53.863Z,103109.72
2023-02-12T13:10:20.691Z,103084.13
2023-02-12T13:12:47.491Z,103094.78
2023-02-12T13:15:14.254Z,103094.97
2023-02-12T13:17:45.701Z,103087.41
2023-02-12T13:20:12.526Z,103094.63
2023-02-12T13:22:39.287Z,103088.84
2023-02-12T13:25:06.129Z,103090.78
2023-02-12T13:27:34.491Z,103087.59
2023-02-12T13:30:01.397Z,103085.53
2023-02-12T13:32:28.187Z,103089.03
2023-02-12T13:34:55.052Z,103090.22
2023-02-12T13:37:21.858Z,103094.47
2023-02-12T13:39:48.641Z,103081.06
2023-02-12T13:42:15.386Z,103085.41
2023-02-12T13:44:42.127Z,103086.31
2023-02-12T13:47:08.859Z,103093.38
2023-02-12T13:49:35.642Z,103085.13
2023-02-12T13:52:02.402Z,103085.50
2023-02-12T13:54:29.154Z,103081.72
2023-02-12T13:56:56.177Z,103086.53
2023-02-12T13:59:22.913Z,103084.63
2023-02-12T14:01:49.759Z,103079.84
2023-02-12T14:04:16.631Z,103081.94
2023-02-12T14:06:43.475Z,103083.13
2023-02-12T14:09:10.229Z,103076.53
2023-02-12T14:11:36.982Z,103084.78
2023-02-12T14:14:06.757Z,103084.81
2023-02-12T14:16:33.497Z,103083.44
2023-02-12T14:19:00.247Z,103086.03
2023-02-12T14:21:27.034Z,103083.31
2023-02-12T14:23:54.273Z,103084.25
2023-02-12T14:26:21.029Z,103081.31
2023-02-12T14:28:47.819Z,103088.41
2023-02-12T14:31:14.619Z,103085.50
2023-02-12T14:33:41.406Z,103081.38
2023-02-12T14:36:08.141Z,103085.69
2023-02-12T14:38:46.961Z,103088.28
2023-02-12T14:41:33.971Z,103093.06
2023-02-12T14:44:03.478Z,103087.28
2023-02-12T14:46:30.239Z,103095.31
2023-02-12T14:48:57.034Z,103087.16
2023-02-12T14:51:23.826Z,103089.91
2023-02-12T14:53:50.571Z,103085.19
2023-02-12T14:56:17.329Z,103090.84
2023-02-12T14:58:44.078Z,103091.91
2023-02-12T15:01:10.896Z,103100.84
2023-02-12T15:03:37.674Z,103095.41
2023-02-12T15:06:04.502Z,103099.88
2023-02-12T15:08:31.323Z,103093.19
2023-02-12T15:10:58.098Z,103095.44
2023-02-12T15:13:24.903Z,103097.31
2023-02-12T15:15:51.697Z,103088.63
2023-02-12T15:18:18.565Z,103093.44
2023-02-12T15:20:45.298Z,103091.38
2023-02-12T15:23:12.033Z,103094.38
2023-02-12T15:25:38.801Z,103082.91
2023-02-12T15:28:05.576Z,103081.69
2023-02-12T15:30:32.319Z,103087.16
2023-02-12T15:32:59.097Z,103085.09
2023-02-12T15:35:25.926Z,103091.31
2023-02-12T15:37:52.698Z,103097.34
2023-02-12T15:40:19.442Z,103104.28
2023-02-12T15:42:46.195Z,103095.41
2023-02-12T15:45:12.941Z,103092.63
2023-02-12T15:47:41.523Z,103094.38
2023-02-12T15:50:08.288Z,103090.97
2023-02-12T15:52:35.197Z,103089.25
2023-02-12T15:55:02.038Z,103096.50
2023-02-12T15:57:28.759Z,103093.44
2023-02-12T15:59:55.514Z,103094.47
2023-02-12T16:02:22.298Z,103091.38
2023-02-12T16:04:49.124Z,103101.72
2023-02-12T16:07:15.957Z,103098.94
2023-02-12T16:09:42.701Z,103107.91
2023-02-12T16:12:11.174Z,103099.25
2023-02-12T16:14:40.643Z,103101.41
2023-02-12T16:17:07.439Z,103110.06
2023-02-12T16:19:36.819Z,103112.38
2023-02-12T16:22:03.567Z,103107.00
2023-02-12T16:24:30.388Z,103120.47
2023-02-12T16:26:57.186Z,103120.50
2023-02-12T16:29:23.981Z,103125.88
2023-02-12T16:31:50.741Z,103122.44
2023-02-12T16:34:17.491Z,103133.28
2023-02-12T16:36:44.230Z,103133.28
2023-02-12T16:39:10.983Z,103131.22
2023-02-12T16:41:40.899Z,103125.22
2023-02-12T16:44:07.754Z,103121.66
2023-02-12T16:46:34.504Z,103128.47
2023-02-12T16:49:01.256Z,103118.72
2023-02-12T16:51:28.239Z,103125.56
2023-02-12T16:53:57.294Z,103131.38
2023-02-12T16:56:24.071Z,103127.47
2023-02-12T16:58:50.909Z,103124.63
2023-02-12T17:01:19.116Z,103128.19
2023-02-12T17:03:47.558Z,103126.94
2023-02-12T17:06:14.817Z,103126.94
2023-02-12T17:08:41.574Z,103123.22
2023-02-12T17:11:10.743Z,103120.88
2023-02-12T17:13:37.702Z,103127.06
2023-02-12T17:16:04.554Z,103133.94
2023-02-12T17:18:32.785Z,103135.34
2023-02-12T17:20:59.886Z,103138.81
2023-02-12T17:23:26.640Z,103129.22
2023-02-12T17:25:53.386Z,103139.00
2023-02-12T17:28:21.057Z,103138.69
2023-02-12T17:30:47.954Z,103140.78
2023-02-12T17:33:14.727Z,103141.56
2023-02-12T17:35:41.496Z,103140.53
2023-02-12T17:38:08.388Z,103150.50
2023-02-12T17:40:35.292Z,103152.22
2023-02-12T17:43:02.060Z,103158.25
2023-02-12T17:45:28.924Z,103162.31
2023-02-12T17:47:55.705Z,103164.75
2023-02-12T17:50:22.447Z,103154.53
2023-02-12T17:52:49.438Z,103154.91
2023-02-12T17:55:17.651Z,103156.66
2023-02-12T17:57:44.384Z,103158.38
2023-02-12T18:00:11.443Z,103162.41
2023-02-12T18:02:38.262Z,103165.69
2023-02-12T18:05:05.019Z,103159.13
2023-02-12T18:07:31.855Z,103157.09
2023-02-12T18:09:58.587Z,103157.88
2023-02-12T18:12:25.326Z,103159.25
2023-02-12T18:14:52.086Z,103152.66
2023-02-12T18:17:18.936Z,103153.16
2023-02-12T18:19:45.905Z,103149.84
2023-02-12T18:22:12.678Z,103154.25
2023-02-12T18:24:40.611Z,103153.31
2023-02-12T18:27:07.375Z,103155.72
2023-02-12T18:29:34.133Z,103152.97
2023-02-12T18:32:00.929Z,103158.88
2023-02-12T18:34:27.665Z,103160.78
2023-02-12T18:36:54.439Z,103157.31
2023-02-12T18:39:21.168Z,103155.81
2023-02-12T18:41:48.017Z,103147.44
2023-02-12T18:44:14.780Z,103147.78
2023-02-12T18:46:41.528Z,103151.75
2023-02-12T18:49:08.290Z,103159.31
2023-02-12T18:51:37.960Z,103153.41
2023-02-12T18:54:06.514Z,103155.56
2023-02-12T18:56:34.179Z,103152.66
2023-02-12T18:59:00.982Z,103156.53
2023-02-12T19:01:27.900Z,103162.06
2023-02-12T19:03:55.104Z,103148.00
2023-02-12T19:06:21.955Z,103153.94
2023-02-12T19:08:48.731Z,103159.75
2023-02-12T19:11:15.852Z,103167.03
2023-02-12T19:13:42.673Z,103165.19
2023-02-12T19:16:09.598Z,103163.50
2023-02-12T19:18:36.398Z,103162.81
2023-02-12T19:21:03.152Z,103158.38
2023-02-12T19:23:29.888Z,103153.06
2023-02-12T19:25:56.626Z,103158.25
2023-02-12T19:28:23.426Z,103159.47
2023-02-12T19:30:50.243Z,103156.72
2023-02-12T19:33:17.009Z,103169.19
2023-02-12T19:35:45.652Z,103165.84
2023-02-12T19:38:12.388Z,103167.84
2023-02-12T19:40:39.140Z,103165.06
2023-02-12T19:43:05.911Z,103165.47
2023-02-12T19:45:33.017Z,103167.41
2023-02-12T19:47:59.784Z,103170.19
2023-02-12T19:50:26.552Z,103168.22
2023-02-12T19:52:53.290Z,103173.13
2023-02-12T19:55:20.096Z,103172.00
2023-02-12T19:57:47.922Z,103167.03
2023-02-12T20:00:14.765Z,103169.66
2023-02-12T20:02:43.875Z,103175.56
2023-02-12T20:05:10.992Z,103168.34
2023-02-12T20:07:37.754Z,103177.97
2023-02-12T20:10:04.482Z,103175.47
2023-02-12T20:12:31.307Z,103174.78
2023-02-12T20:15:00.790Z,103174.13
2023-02-12T20:17:27.544Z,103172.72
2023-02-12T20:19:54.298Z,103169.16
2023-02-12T20:22:22.604Z,103169.03
2023-02-12T20:24:51.066Z,103174.31
2023-02-12T20:27:17.839Z,103169.16
2023-02-12T20:29:44.641Z,103174.16
2023-02-12T20:32:11.878Z,103177.16
2023-02-12T20:34:50.154Z,103178.69
2023-02-12T20:37:18.678Z,103178.97
2023-02-12T20:39:45.489Z,103181.25
2023-02-12T20:42:12.315Z,103174.78
2023-02-12T20:44:39.081Z,103180.00
2023-02-12T20:47:05.843Z,103177.78
2023-02-12T20:49:32.576Z,103172.31
2023-02-12T20:51:59.329Z,103181.31
2023-02-12T20:54:26.121Z,103181.50
2023-02-12T20:56:52.853Z,103176.34
2023-02-12T20:59:20.120Z,103179.44
2023-02-12T21:01:47.315Z,103186.69
2023-02-12T21:04:14.099Z,103182.72
2023-02-12T21:06:41.422Z,103180.72
2023-02-12T21:09:09.466Z,103172.63
2023-02-12T21:11:36.218Z,103179.19
2023-02-12T21:14:20.913Z,103174.16
2023-02-12T21:16:48.891Z,103176.88
2023-02-12T21:19:16.098Z,103181.28
2023-02-12T21:21:44.919Z,103184.66
2023-02-12T21:24:11.893Z,103180.28
2023-02-12T21:26:38.637Z,103185.16
2023-02-12T21:29:05.383Z,103179.66
2023-02-12T21:31:32.268Z,103179.31
2023-02-12T21:33:59.046Z,103183.28
2023-02-12T21:36:25.778Z,103177.34
2023-02-12T21:38:52.535Z,103176.69
2023-02-12T21:41:19.273Z,103183.91
2023-02-12T21:43:46.037Z,103177.03
2023-02-12T21:46:12.987Z,103178.59
2023-02-12T21:48:39.793Z,103164.31
2023-02-12T21:51:06.567Z,103168.97
2023-02-12T21:53:33.334Z,103167.50
2023-02-12T21:56:00.078Z,103157.16
2023-02-12T21:58:27.003Z,103159.22
2023-02-12T22:00:53.811Z,103163.53
2023-02-12T22:03:20.892Z,103159.84
2023-02-12T22:05:47.641Z,103163.38
2023-02-12T22:08:14.430Z,103162.38
2023-02-12T22:10:41.245Z,103160.38
2023-02-12T22:13:08.075Z,103154.03
2023-02-12T22:15:34.895Z,103164.88
2023-02-12T22:18:01.645Z,103156.47
2023-02-12T22:20:28.374Z,103163.41
2023-02-12T22:22:55.141Z,103167.03
2023-02-12T22:25:22.488Z,103157.44
2023-02-12T22:27:49.234Z,103161.53
2023-02-12T22:30:17.759Z,103163.47
2023-02-12T22:32:44.537Z,103156.41
2023-02-12T22:35:11.295Z,103164.22
2023-02-12T22:37:38.283Z,103159.69
2023-02-12T22:40:05.038Z,103160.31
2023-02-12T22:42:31.782Z,103167.06
2023-02-12T22:44:58.562Z,103159.66
2023-02-12T22:47:25.332Z,103172.84
2023-02-12T22:49:52.092Z,103168.53
2023-02-12T22:52:18.836Z,103169.94
2023-02-12T22:54:45.564Z,103168.06
2023-02-12T22:57:12.352Z,103169.34
2023-02-12T22:59:39.113Z,103173.13
2023-02-12T23:02:05.904Z,103173.50
2023-02-12T23:04:32.652Z,103172.19
2023-02-12T23:06:59.409Z,103171.44
2023-02-12T23:09:26.147Z,103174.94
2023-02-12T23:11:52.901Z,103174.63
2023-02-12T23:14:19.711Z,103171.53
2023-02-12T23:16:46.591Z,103165.84
2023-02-12T23:19:13.432Z,103173.22
2023-02-12T23:21:40.195Z,103169.59
2023-02-12T23:24:06.981Z,103179.66
2023-02-12T23:26:34.076Z,103169.84
2023-02-12T23:29:00.849Z,103173.44
2023-02-12T23:31:27.700Z,103172.06
2023-02-12T23:33:54.497Z,103174.69
2023-02-12T23:36:21.370Z,103172.28
2023-02-12T23:38:48.135Z,103178.75
2023-02-12T23:41:14.995Z,103178.94
2023-02-12T23:43:41.801Z,103177.25
2023-02-12T23:46:09.138Z,103179.66
2023-02-12T23:48:35.949Z,103173.84
2023-02-12T23:51:02.766Z,103164.94
2023-02-12T23:53:29.566Z,103168.69
2023-02-12T23:55:56.324Z,103164.28
2023-02-12T23:58:23.090Z,103174.97
